Time;durP1;ratioP1;P1;durP2;ratioP2;P2;SDS_P1;SDS_P2;PMS_P1;PMS_P2;Temp;Humidity;BMP_temperature;BMP_pressure;BME280_temperature;BME280_humidity;BME280_pressure;Samples;Min_cycle;Max_cycle;Signal;HPM_P1;HPM_P2
2020/12/10 00:01:07;;;;;;;;;;;19.90;35.40;;;;;;484112;246;991;-70
2020/12/10 00:03:09;;;;;;;;;;;19.90;35.50;;;;;;484077;246;1167;-70
2020/12/10 00:05:10;;;;;;;;;;;19.90;35.40;;;;;;484067;246;1105;-70
2020/12/10 00:07:11;;;;;;;;;;;20.00;35.50;;;;;;484056;246;2200;-70
2020/12/10 00:09:13;;;;;;;;;;;20.00;35.40;;;;;;484078;246;1072;-70
2020/12/10 00:11:14;;;;;;;;;;;19.90;35.40;;;;;;484166;246;1325;-70
2020/12/10 00:13:15;;;;;;;;;;;19.90;35.50;;;;;;484148;246;1160;-70
2020/12/10 00:15:16;;;;;;;;;;;19.90;35.50;;;;;;484188;246;1074;-70
2020/12/10 00:17:18;;;;;;;;;;;19.90;35.50;;;;;;484181;246;1004;-70
2020/12/10 00:19:19;;;;;;;;;;;19.90;35.50;;;;;;484170;246;1053;-70
2020/12/10 00:21:21;;;;;;;;;;;19.90;35.50;;;;;;484126;246;983;-70
2020/12/10 00:23:23;;;;;;;;;;;19.90;35.50;;;;;;484090;246;950;-70
2020/12/10 00:25:24;;;;;;;;;;;19.90;35.60;;;;;;484133;246;975;-69
2020/12/10 00:27:25;;;;;;;;;;;19.90;35.60;;;;;;484199;243;2200;-70
2020/12/10 00:29:27;;;;;;;;;;;19.90;35.60;;;;;;484211;246;1072;-70
2020/12/10 00:31:28;;;;;;;;;;;19.90;35.60;;;;;;484153;246;1018;-70
2020/12/10 00:33:29;;;;;;;;;;;19.90;35.70;;;;;;484178;246;1270;-70
2020/12/10 00:35:31;;;;;;;;;;;19.90;35.70;;;;;;484204;246;1212;-70
2020/12/10 00:37:32;;;;;;;;;;;19.90;35.60;;;;;;484127;242;1218;-70
2020/12/10 00:39:33;;;;;;;;;;;19.90;35.70;;;;;;484160;246;1057;-70
2020/12/10 00:41:35;;;;;;;;;;;19.90;35.70;;;;;;484184;246;1204;-70
2020/12/10 00:43:36;;;;;;;;;;;19.90;35.60;;;;;;484130;246;1055;-69
2020/12/10 00:45:37;;;;;;;;;;;19.90;35.50;;;;;;484182;246;1097;-70
2020/12/10 00:47:38;;;;;;;;;;;19.80;35.70;;;;;;484137;246;2188;-70
2020/12/10 00:49:40;;;;;;;;;;;19.90;35.70;;;;;;484164;246;1075;-70
2020/12/10 00:51:41;;;;;;;;;;;19.90;35.70;;;;;;484130;246;1254;-70
2020/12/10 00:53:42;;;;;;;;;;;20.00;35.60;;;;;;484159;246;1443;-70
2020/12/10 00:55:43;;;;;;;;;;;20.00;35.60;;;;;;484104;246;1154;-70
2020/12/10 00:57:45;;;;;;;;;;;19.90;35.50;;;;;;484141;246;1226;-70
2020/12/10 00:59:46;;;;;;;;;;;19.90;35.60;;;;;;484098;246;1039;-70
2020/12/10 01:01:48;;;;;;;;;;;20.00;35.70;;;;;;484105;242;1291;-70
2020/12/10 01:03:49;;;;;;;;;;;19.90;35.60;;;;;;484177;246;1030;-70
2020/12/10 01:05:50;;;;;;;;;;;19.90;35.70;;;;;;484062;242;1500;-70
2020/12/10 01:07:51;;;;;;;;;;;19.90;35.60;;;;;;484141;246;2203;-70
2020/12/10 01:09:53;;;;;;;;;;;20.00;35.60;;;;;;484171;246;1030;-70
2020/12/10 01:11:54;;;;;;;;;;;20.00;35.60;;;;;;484201;246;1190;-70
2020/12/10 01:13:55;;;;;;;;;;;20.00;35.60;;;;;;484220;246;1080;-70
2020/12/10 01:15:57;;;;;;;;;;;20.00;35.20;;;;;;484175;246;978;-70
2020/12/10 01:17:58;;;;;;;;;;;19.90;35.40;;;;;;484183;246;1031;-70
2020/12/10 01:19:59;;;;;;;;;;;19.90;35.40;;;;;;484186;246;1110;-70
2020/12/10 01:22:00;;;;;;;;;;;19.90;35.40;;;;;;484164;246;1158;-70
2020/12/10 01:24:02;;;;;;;;;;;20.00;35.20;;;;;;484158;246;982;-70
2020/12/10 01:26:03;;;;;;;;;;;20.00;35.20;;;;;;484164;246;962;-70
2020/12/10 01:28:04;;;;;;;;;;;20.00;35.10;;;;;;484152;246;2187;-70
2020/12/10 01:30:05;;;;;;;;;;;20.10;35.20;;;;;;484118;246;1022;-70
2020/12/10 01:32:07;;;;;;;;;;;20.10;35.00;;;;;;484173;246;1034;-70
2020/12/10 01:34:08;;;;;;;;;;;20.00;34.90;;;;;;484197;246;990;-70
2020/12/10 01:36:09;;;;;;;;;;;20.10;34.90;;;;;;484206;246;964;-70
2020/12/10 01:38:11;;;;;;;;;;;20.10;34.80;;;;;;484206;246;1071;-70
2020/12/10 01:40:12;;;;;;;;;;;20.00;34.80;;;;;;484171;246;980;-70
2020/12/10 01:42:13;;;;;;;;;;;20.00;34.90;;;;;;484159;246;1177;-70
2020/12/10 01:44:14;;;;;;;;;;;20.00;34.80;;;;;;484152;246;1047;-70
2020/12/10 01:46:16;;;;;;;;;;;20.00;34.80;;;;;;484205;246;1031;-70
2020/12/10 01:48:17;;;;;;;;;;;20.00;34.90;;;;;;484176;246;2192;-70
2020/12/10 01:50:18;;;;;;;;;;;20.10;35.00;;;;;;484161;246;979;-69
2020/12/10 01:52:20;;;;;;;;;;;20.10;34.80;;;;;;484230;246;1112;-69
2020/12/10 01:54:21;;;;;;;;;;;20.20;34.70;;;;;;484216;246;1063;-70
2020/12/10 01:56:22;;;;;;;;;;;20.20;34.80;;;;;;484165;246;1092;-70
2020/12/10 01:58:23;;;;;;;;;;;20.10;34.80;;;;;;484213;246;1190;-70
2020/12/10 02:00:25;;;;;;;;;;;20.20;34.80;;;;;;484243;246;1096;-70
2020/12/10 02:02:26;;;;;;;;;;;20.20;34.80;;;;;;484164;246;1016;-70
2020/12/10 02:04:28;;;;;;;;;;;20.10;34.80;;;;;;484147;246;1333;-70
2020/12/10 02:06:28;;;;;;;;;;;20.10;35.00;;;;;;484058;246;2242;-70
2020/12/10 02:08:30;;;;;;;;;;;20.10;35.10;;;;;;484141;246;2203;-70
2020/12/10 02:10:31;;;;;;;;;;;20.10;35.00;;;;;;484137;246;1171;-70
2020/12/10 02:12:32;;;;;;;;;;;20.10;35.00;;;;;;484151;246;1197;-70
2020/12/10 02:14:34;;;;;;;;;;;20.10;35.00;;;;;;484175;246;1306;-70
2020/12/10 02:16:35;;;;;;;;;;;20.10;35.00;;;;;;484170;246;1053;-70
2020/12/10 02:18:36;;;;;;;;;;;20.20;35.00;;;;;;484137;246;1173;-70
2020/12/10 02:20:37;;;;;;;;;;;20.10;34.90;;;;;;484111;246;1047;-70
2020/12/10 02:22:39;;;;;;;;;;;20.10;35.00;;;;;;484150;246;1148;-70
2020/12/10 02:24:40;;;;;;;;;;;20.10;35.10;;;;;;484148;246;1097;-71
2020/12/10 02:26:41;;;;;;;;;;;20.10;35.00;;;;;;484181;246;1057;-70
2020/12/10 02:28:43;;;;;;;;;;;20.10;35.10;;;;;;484114;246;2180;-70
2020/12/10 02:30:44;;;;;;;;;;;20.10;35.20;;;;;;484149;246;1122;-70
2020/12/10 02:32:45;;;;;;;;;;;20.10;35.20;;;;;;484123;246;1173;-69
2020/12/10 02:34:46;;;;;;;;;;;20.10;35.10;;;;;;484011;246;1354;-69
2020/12/10 02:36:48;;;;;;;;;;;20.10;35.10;;;;;;484084;246;1119;-69
2020/12/10 02:38:49;;;;;;;;;;;20.10;35.10;;;;;;484170;246;1224;-70
2020/12/10 02:40:50;;;;;;;;;;;20.20;35.10;;;;;;484188;246;964;-70
2020/12/10 02:42:51;;;;;;;;;;;20.10;35.10;;;;;;484127;246;1250;-70
2020/12/10 02:44:53;;;;;;;;;;;20.10;35.10;;;;;;484189;246;1081;-70
2020/12/10 02:46:54;;;;;;;;;;;20.10;35.10;;;;;;484125;246;1187;-70
2020/12/10 02:48:55;;;;;;;;;;;20.10;35.20;;;;;;484142;246;2208;-70
2020/12/10 02:51:00;;;;;;;;;;;20.10;35.20;;;;;;484163;246;1088;-70
2020/12/10 02:52:58;;;;;;;;;;;20.10;35.20;;;;;;483909;246;2294;-71
2020/12/10 02:54:59;;;;;;;;;;;20.10;35.20;;;;;;484156;246;981;-70
2020/12/10 02:57:01;;;;;;;;;;;20.10;35.20;;;;;;484228;246;1146;-70
2020/12/10 02:59:02;;;;;;;;;;;20.10;35.20;;;;;;484237;246;1219;-70
2020/12/10 03:01:03;;;;;;;;;;;20.10;35.20;;;;;;484148;246;1104;-70
2020/12/10 03:03:05;;;;;;;;;;;20.10;35.30;;;;;;484160;246;1211;-70
2020/12/10 03:05:06;;;;;;;;;;;20.10;35.20;;;;;;484142;246;984;-70
2020/12/10 03:07:08;;;;;;;;;;;20.10;35.30;;;;;;484085;246;1123;-70
2020/12/10 03:09:09;;;;;;;;;;;20.10;35.40;;;;;;484139;246;2200;-70
2020/12/10 03:11:10;;;;;;;;;;;20.10;35.40;;;;;;483982;246;1562;-70
2020/12/10 03:13:11;;;;;;;;;;;20.10;35.50;;;;;;484104;246;1195;-70
2020/12/10 03:15:13;;;;;;;;;;;20.10;35.10;;;;;;484138;246;989;-70
2020/12/10 03:17:14;;;;;;;;;;;20.00;35.20;;;;;;484161;246;1070;-70
2020/12/10 03:19:15;;;;;;;;;;;20.10;35.50;;;;;;484159;246;1046;-70
2020/12/10 03:21:17;;;;;;;;;;;20.10;35.50;;;;;;484196;246;977;-70
2020/12/10 03:23:18;;;;;;;;;;;20.00;35.50;;;;;;484173;246;949;-70
2020/12/10 03:25:20;;;;;;;;;;;20.00;35.60;;;;;;484172;246;1053;-70
2020/12/10 03:27:21;;;;;;;;;;;20.00;35.50;;;;;;484169;246;1081;-70
2020/12/10 03:29:23;;;;;;;;;;;20.00;35.50;;;;;;484047;246;2188;-70
2020/12/10 03:31:25;;;;;;;;;;;20.00;35.60;;;;;;484190;246;1345;-70
2020/12/10 03:33:26;;;;;;;;;;;20.00;35.40;;;;;;484167;246;1083;-70
2020/12/10 03:35:27;;;;;;;;;;;20.00;35.30;;;;;;484206;246;1115;-70
2020/12/10 03:37:28;;;;;;;;;;;20.00;35.30;;;;;;484172;246;1135;-70
2020/12/10 03:39:32;;;;;;;;;;;20.10;35.20;;;;;;484170;246;1094;-70
2020/12/10 03:41:33;;;;;;;;;;;20.10;35.20;;;;;;484174;246;1129;-70
2020/12/10 03:43:34;;;;;;;;;;;20.00;35.20;;;;;;484160;246;1200;-70
2020/12/10 03:45:36;;;;;;;;;;;20.00;35.20;;;;;;484215;246;1143;-70
2020/12/10 03:47:37;;;;;;;;;;;20.00;35.20;;;;;;484172;246;1048;-70
2020/12/10 03:49:38;;;;;;;;;;;20.00;35.10;;;;;;484186;246;2184;-69
2020/12/10 03:51:40;;;;;;;;;;;20.00;35.20;;;;;;484142;246;1296;-70
2020/12/10 03:53:41;;;;;;;;;;;20.00;35.20;;;;;;484144;246;1020;-70
2020/12/10 03:55:42;;;;;;;;;;;20.00;35.10;;;;;;484163;246;1131;-71
2020/12/10 03:57:43;;;;;;;;;;;20.00;35.20;;;;;;484169;246;1171;-69
2020/12/10 03:59:45;;;;;;;;;;;20.00;35.20;;;;;;484093;246;1219;-69
2020/12/10 04:01:46;;;;;;;;;;;20.00;35.20;;;;;;484100;246;1202;-70
2020/12/10 04:03:47;;;;;;;;;;;20.00;35.10;;;;;;484167;246;1118;-70
2020/12/10 04:05:49;;;;;;;;;;;20.10;35.10;;;;;;484150;246;1108;-70
2020/12/10 04:07:50;;;;;;;;;;;20.00;35.20;;;;;;484143;246;986;-70
2020/12/10 04:09:51;;;;;;;;;;;20.10;35.10;;;;;;484159;246;2195;-70
2020/12/10 04:11:52;;;;;;;;;;;20.00;35.00;;;;;;484146;243;1263;-70
2020/12/10 04:13:54;;;;;;;;;;;20.00;34.90;;;;;;484143;246;1331;-70
2020/12/10 04:15:55;;;;;;;;;;;20.00;35.00;;;;;;484117;246;1559;-70
2020/12/10 04:17:57;;;;;;;;;;;19.90;35.10;;;;;;484144;246;1086;-70
2020/12/10 04:19:58;;;;;;;;;;;19.90;35.20;;;;;;483851;246;1378;-70
2020/12/10 04:21:59;;;;;;;;;;;20.00;35.30;;;;;;484156;246;1156;-70
2020/12/10 04:24:00;;;;;;;;;;;20.00;35.20;;;;;;484112;246;990;-70
2020/12/10 04:26:02;;;;;;;;;;;19.90;35.30;;;;;;484041;246;1558;-70
2020/12/10 04:28:03;;;;;;;;;;;19.90;35.30;;;;;;484149;246;1055;-70
2020/12/10 04:30:05;;;;;;;;;;;19.90;35.30;;;;;;484119;246;2180;-70
2020/12/10 04:32:06;;;;;;;;;;;19.90;35.20;;;;;;484121;246;1277;-70
2020/12/10 04:34:07;;;;;;;;;;;19.90;35.30;;;;;;484145;246;1005;-70
2020/12/10 04:36:09;;;;;;;;;;;20.00;35.30;;;;;;484185;246;1294;-70
2020/12/10 04:38:10;;;;;;;;;;;20.00;35.20;;;;;;484148;246;1299;-70
2020/12/10 04:40:11;;;;;;;;;;;20.00;35.20;;;;;;484142;246;1127;-70
2020/12/10 04:42:12;;;;;;;;;;;20.00;35.20;;;;;;484071;242;1319;-70
2020/12/10 04:44:14;;;;;;;;;;;20.00;35.10;;;;;;484147;246;1205;-70
2020/12/10 04:46:15;;;;;;;;;;;20.00;35.20;;;;;;484097;246;937;-70
2020/12/10 04:48:16;;;;;;;;;;;20.00;35.30;;;;;;484091;246;1130;-70
2020/12/10 04:50:20;;;;;;;;;;;19.90;35.30;;;;;;484122;246;2188;-70
2020/12/10 04:52:19;;;;;;;;;;;19.90;35.30;;;;;;484015;246;2326;-70
2020/12/10 04:54:20;;;;;;;;;;;19.90;35.40;;;;;;484146;246;1036;-70
2020/12/10 04:56:22;;;;;;;;;;;19.90;35.50;;;;;;484125;246;1183;-70
2020/12/10 04:58:23;;;;;;;;;;;19.90;35.50;;;;;;484131;246;1289;-70
2020/12/10 05:00:25;;;;;;;;;;;20.00;35.50;;;;;;484101;246;1195;-71
2020/12/10 05:02:26;;;;;;;;;;;20.00;35.40;;;;;;484067;246;2175;-70
2020/12/10 05:04:27;;;;;;;;;;;20.00;35.40;;;;;;484104;246;1038;-70
2020/12/10 05:06:28;;;;;;;;;;;20.00;35.40;;;;;;484043;246;1480;-70
2020/12/10 05:08:30;;;;;;;;;;;20.00;35.40;;;;;;484069;246;2187;-70
2020/12/10 05:10:31;;;;;;;;;;;20.10;35.40;;;;;;484139;246;1072;-70
2020/12/10 05:12:32;;;;;;;;;;;20.00;35.50;;;;;;484075;246;1517;-70
2020/12/10 05:14:34;;;;;;;;;;;20.00;35.50;;;;;;484090;246;1193;-69
2020/12/10 05:16:35;;;;;;;;;;;20.00;35.60;;;;;;484161;246;1045;-70
2020/12/10 05:18:36;;;;;;;;;;;20.10;35.40;;;;;;484101;246;1076;-70
2020/12/10 05:20:37;;;;;;;;;;;20.00;35.40;;;;;;484093;246;978;-70
2020/12/10 05:22:39;;;;;;;;;;;20.00;35.60;;;;;;484166;246;1385;-69
2020/12/10 05:24:40;;;;;;;;;;;20.00;35.50;;;;;;484083;246;1079;-69
2020/12/10 05:26:41;;;;;;;;;;;20.00;35.50;;;;;;484075;246;1016;-69
2020/12/10 05:28:42;;;;;;;;;;;20.10;35.50;;;;;;484067;246;2192;-69
2020/12/10 05:30:44;;;;;;;;;;;20.10;35.40;;;;;;483929;246;1171;-69
2020/12/10 05:32:45;;;;;;;;;;;20.10;35.40;;;;;;483948;246;1052;-69
2020/12/10 05:34:46;;;;;;;;;;;20.10;35.30;;;;;;483927;246;1307;-69
2020/12/10 05:36:48;;;;;;;;;;;20.10;35.30;;;;;;483911;246;1047;-69
2020/12/10 05:38:49;;;;;;;;;;;20.10;35.40;;;;;;484003;246;1015;-69
2020/12/10 05:40:50;;;;;;;;;;;20.00;35.40;;;;;;484013;246;1084;-69
2020/12/10 05:42:51;;;;;;;;;;;20.10;35.40;;;;;;483920;246;967;-69
2020/12/10 05:44:53;;;;;;;;;;;20.10;35.40;;;;;;484032;246;1055;-69
2020/12/10 05:46:54;;;;;;;;;;;20.10;35.50;;;;;;484066;246;1163;-69
2020/12/10 05:48:55;;;;;;;;;;;20.00;35.40;;;;;;483946;246;2199;-69
2020/12/10 05:50:57;;;;;;;;;;;20.00;35.40;;;;;;483899;242;1124;-69
2020/12/10 05:52:58;;;;;;;;;;;20.00;35.40;;;;;;483856;246;1062;-69
2020/12/10 05:54:59;;;;;;;;;;;20.00;35.30;;;;;;483880;246;1042;-69
2020/12/10 05:57:00;;;;;;;;;;;20.00;35.30;;;;;;483829;246;1133;-70
2020/12/10 05:59:02;;;;;;;;;;;19.90;35.40;;;;;;483855;246;1019;-70
2020/12/10 06:01:03;;;;;;;;;;;19.90;35.50;;;;;;483847;242;1269;-70
2020/12/10 06:03:04;;;;;;;;;;;20.00;35.40;;;;;;483692;246;1076;-70
2020/12/10 06:05:06;;;;;;;;;;;20.00;35.50;;;;;;483895;246;1042;-70
2020/12/10 06:07:07;;;;;;;;;;;19.90;35.50;;;;;;483778;246;1142;-70
2020/12/10 06:09:08;;;;;;;;;;;20.00;35.30;;;;;;483817;246;2191;-69
2020/12/10 06:11:09;;;;;;;;;;;19.90;35.40;;;;;;483889;246;1193;-69
2020/12/10 06:13:11;;;;;;;;;;;20.00;35.30;;;;;;483923;246;1072;-69
2020/12/10 06:15:12;;;;;;;;;;;19.90;35.20;;;;;;483877;246;1275;-69
2020/12/10 06:17:13;;;;;;;;;;;19.90;35.10;;;;;;483786;243;1200;-69
2020/12/10 06:19:15;;;;;;;;;;;19.90;35.40;;;;;;483871;246;1192;-69
2020/12/10 06:21:16;;;;;;;;;;;19.90;35.30;;;;;;483912;246;1247;-69
2020/12/10 06:23:17;;;;;;;;;;;19.90;35.30;;;;;;483879;246;1063;-69
2020/12/10 06:25:18;;;;;;;;;;;19.90;35.20;;;;;;483946;246;1217;-69
2020/12/10 06:27:20;;;;;;;;;;;19.90;35.20;;;;;;483890;246;1246;-69
2020/12/10 06:29:21;;;;;;;;;;;19.90;35.30;;;;;;483965;246;2184;-69
2020/12/10 06:31:22;;;;;;;;;;;19.90;35.30;;;;;;483843;246;1312;-70
2020/12/10 06:33:24;;;;;;;;;;;19.90;35.30;;;;;;483820;246;1164;-70
2020/12/10 06:35:25;;;;;;;;;;;19.90;35.20;;;;;;483800;246;1275;-70
2020/12/10 06:37:26;;;;;;;;;;;19.90;35.20;;;;;;483813;246;1192;-70
2020/12/10 06:39:28;;;;;;;;;;;19.90;35.40;;;;;;483860;246;1169;-70
2020/12/10 06:41:29;;;;;;;;;;;19.90;35.30;;;;;;483791;246;1108;-70
2020/12/10 06:43:30;;;;;;;;;;;19.90;35.30;;;;;;483674;246;1034;-70
2020/12/10 06:45:34;;;;;;;;;;;19.90;35.20;;;;;;483579;246;1226;-69
2020/12/10 06:47:34;;;;;;;;;;;19.90;35.30;;;;;;483733;246;2203;-69
2020/12/10 06:49:36;;;;;;;;;;;19.90;35.40;;;;;;483724;246;2196;-69
2020/12/10 06:51:36;;;;;;;;;;;19.90;35.30;;;;;;483545;246;2086;-69
2020/12/10 06:53:38;;;;;;;;;;;19.90;35.20;;;;;;483620;246;1035;-69
2020/12/10 06:55:39;;;;;;;;;;;19.90;35.30;;;;;;483667;246;1231;-69
2020/12/10 06:57:40;;;;;;;;;;;19.90;35.30;;;;;;483728;246;1045;-69
2020/12/10 06:59:43;;;;;;;;;;;20.00;35.30;;;;;;483623;246;1268;-70
2020/12/10 07:01:43;;;;;;;;;;;20.00;35.20;;;;;;483584;246;2132;-70
2020/12/10 07:03:45;;;;;;;;;;;20.10;35.20;;;;;;483613;246;1046;-70
2020/12/10 07:05:45;;;;;;;;;;;20.00;35.30;;;;;;483634;246;1124;-70
2020/12/10 07:07:47;;;;;;;;;;;20.00;35.30;;;;;;483578;246;1036;-69
2020/12/10 07:09:48;;;;;;;;;;;20.00;35.30;;;;;;483625;246;2193;-69
2020/12/10 07:11:49;;;;;;;;;;;20.00;35.30;;;;;;483625;246;1010;-69
2020/12/10 07:13:51;;;;;;;;;;;20.00;35.30;;;;;;483628;246;1028;-70
2020/12/10 07:15:52;;;;;;;;;;;20.00;35.50;;;;;;483688;246;1051;-70
2020/12/10 07:17:53;;;;;;;;;;;20.00;35.50;;;;;;483643;246;1233;-70
2020/12/10 07:19:54;;;;;;;;;;;20.10;35.50;;;;;;483472;246;1225;-70
2020/12/10 07:21:56;;;;;;;;;;;20.10;35.60;;;;;;483203;246;1184;-70
2020/12/10 07:23:57;;;;;;;;;;;20.10;35.60;;;;;;483393;246;1053;-70
2020/12/10 07:25:58;;;;;;;;;;;20.10;35.60;;;;;;483516;246;1062;-69
2020/12/10 07:28:00;;;;;;;;;;;20.10;35.60;;;;;;483496;246;1063;-70
2020/12/10 07:30:01;;;;;;;;;;;20.20;35.50;;;;;;483547;246;2180;-70
2020/12/10 07:32:02;;;;;;;;;;;20.20;35.70;;;;;;483499;246;1188;-70
2020/12/10 07:34:04;;;;;;;;;;;20.10;35.60;;;;;;483562;246;1095;-69
2020/12/10 07:36:05;;;;;;;;;;;20.10;35.70;;;;;;483531;246;1071;-70
2020/12/10 07:38:06;;;;;;;;;;;20.10;35.80;;;;;;483474;246;1031;-70
2020/12/10 07:40:08;;;;;;;;;;;20.10;35.80;;;;;;483480;246;1055;-70
2020/12/10 07:42:09;;;;;;;;;;;20.00;35.90;;;;;;483502;246;1052;-70
2020/12/10 07:44:10;;;;;;;;;;;20.10;35.80;;;;;;483429;246;1062;-69
2020/12/10 07:46:12;;;;;;;;;;;20.10;35.90;;;;;;483285;246;1109;-70
2020/12/10 07:48:13;;;;;;;;;;;20.00;35.90;;;;;;483296;246;1206;-70
2020/12/10 07:50:21;;;;;;;;;;;20.10;35.90;;;;;;483333;246;2179;-70
2020/12/10 07:52:22;;;;;;;;;;;20.10;36.00;;;;;;483389;246;1985;-70
2020/12/10 07:54:23;;;;;;;;;;;20.00;35.90;;;;;;483487;246;1069;-70
2020/12/10 07:56:24;;;;;;;;;;;19.90;35.80;;;;;;483439;246;1070;-70
2020/12/10 07:58:26;;;;;;;;;;;20.00;36.00;;;;;;483472;246;1072;-70
2020/12/10 08:00:27;;;;;;;;;;;20.00;35.90;;;;;;483493;246;1037;-70
2020/12/10 08:02:28;;;;;;;;;;;20.00;35.90;;;;;;483421;246;1179;-70
2020/12/10 08:04:29;;;;;;;;;;;20.00;35.90;;;;;;483462;246;1254;-69
2020/12/10 08:06:31;;;;;;;;;;;20.10;36.00;;;;;;483281;246;1114;-70
2020/12/10 08:08:32;;;;;;;;;;;20.00;35.90;;;;;;483116;246;1116;-69
2020/12/10 08:10:34;;;;;;;;;;;20.00;35.90;;;;;;483355;246;2175;-69
2020/12/10 08:12:35;;;;;;;;;;;20.00;35.90;;;;;;483414;246;1159;-70
2020/12/10 08:14:36;;;;;;;;;;;20.10;35.80;;;;;;483457;246;1080;-70
2020/12/10 08:16:38;;;;;;;;;;;20.00;35.60;;;;;;483249;246;1499;-69
2020/12/10 08:18:39;;;;;;;;;;;20.10;35.70;;;;;;483295;246;1201;-70
2020/12/10 08:20:40;;;;;;;;;;;20.00;35.60;;;;;;483373;246;1226;-70
2020/12/10 08:22:42;;;;;;;;;;;20.10;35.70;;;;;;483452;246;1187;-69
2020/12/10 08:24:44;;;;;;;;;;;20.00;35.60;;;;;;483522;246;1130;-70
2020/12/10 08:26:44;;;;;;;;;;;20.00;35.60;;;;;;483399;246;2240;-69
2020/12/10 08:28:45;;;;;;;;;;;20.00;35.50;;;;;;483500;246;1061;-69
2020/12/10 08:30:47;;;;;;;;;;;20.00;35.50;;;;;;483472;246;2192;-69
2020/12/10 08:32:48;;;;;;;;;;;20.00;35.50;;;;;;483188;246;1191;-70
2020/12/10 08:34:49;;;;;;;;;;;20.10;35.30;;;;;;483313;246;1295;-70
2020/12/10 08:36:51;;;;;;;;;;;20.10;35.40;;;;;;483208;246;1154;-70
2020/12/10 08:38:52;;;;;;;;;;;19.90;35.50;;;;;;483344;246;1202;-69
2020/12/10 08:40:53;;;;;;;;;;;19.90;35.60;;;;;;483369;246;1045;-69
2020/12/10 08:42:54;;;;;;;;;;;19.90;35.60;;;;;;483400;246;1133;-70
2020/12/10 08:44:56;;;;;;;;;;;19.90;35.60;;;;;;483315;246;1077;-69
2020/12/10 08:46:57;;;;;;;;;;;20.00;35.40;;;;;;483340;246;1165;-69
2020/12/10 08:48:58;;;;;;;;;;;20.10;35.40;;;;;;483532;246;1189;-70
2020/12/10 08:51:00;;;;;;;;;;;20.10;35.40;;;;;;483470;246;2180;-70
2020/12/10 08:53:01;;;;;;;;;;;20.00;35.50;;;;;;483224;243;2091;-69
2020/12/10 08:55:02;;;;;;;;;;;20.00;35.50;;;;;;483469;246;1092;-69
2020/12/10 08:57:08;;;;;;;;;;;20.00;35.40;;;;;;483330;246;1197;-69
2020/12/10 08:59:05;;;;;;;;;;;20.00;35.40;;;;;;482968;246;2302;-71
2020/12/10 09:01:06;;;;;;;;;;;20.00;35.30;;;;;;483315;246;1053;-69
2020/12/10 09:03:07;;;;;;;;;;;20.00;35.50;;;;;;483241;246;1212;-70
2020/12/10 09:05:08;;;;;;;;;;;20.00;35.40;;;;;;483134;246;1244;-69
2020/12/10 09:07:11;;;;;;;;;;;20.00;35.40;;;;;;483390;246;1220;-69
2020/12/10 09:09:11;;;;;;;;;;;20.00;35.50;;;;;;483274;246;2118;-70
2020/12/10 09:11:12;;;;;;;;;;;20.00;35.40;;;;;;483223;246;2195;-70
2020/12/10 09:13:14;;;;;;;;;;;20.00;35.40;;;;;;483154;246;1242;-69
2020/12/10 09:15:15;;;;;;;;;;;20.00;35.30;;;;;;483319;246;1165;-69
2020/12/10 09:17:16;;;;;;;;;;;20.10;35.50;;;;;;483407;246;1026;-70
2020/12/10 09:19:18;;;;;;;;;;;20.00;35.50;;;;;;483472;246;1155;-70
2020/12/10 09:21:19;;;;;;;;;;;20.00;35.40;;;;;;483314;246;1055;-70
2020/12/10 09:23:20;;;;;;;;;;;20.00;35.40;;;;;;483205;246;1083;-70
2020/12/10 09:25:21;;;;;;;;;;;20.00;35.60;;;;;;483281;246;1168;-70
2020/12/10 09:27:23;;;;;;;;;;;20.10;35.40;;;;;;483111;246;1186;-70
2020/12/10 09:29:24;;;;;;;;;;;20.10;35.30;;;;;;483296;246;1136;-69
2020/12/10 09:31:26;;;;;;;;;;;20.10;35.30;;;;;;483239;246;2176;-70
2020/12/10 09:33:27;;;;;;;;;;;20.00;35.30;;;;;;483279;246;1200;-70
2020/12/10 09:35:28;;;;;;;;;;;20.00;35.50;;;;;;483348;246;1082;-70
2020/12/10 09:37:29;;;;;;;;;;;20.00;35.40;;;;;;483231;246;1066;-70
2020/12/10 09:39:33;;;;;;;;;;;20.00;35.30;;;;;;483139;246;1253;-70
2020/12/10 09:41:33;;;;;;;;;;;20.00;35.40;;;;;;483323;242;2090;-69
2020/12/10 09:43:33;;;;;;;;;;;20.00;35.50;;;;;;483323;246;2142;-69
2020/12/10 09:45:35;;;;;;;;;;;20.00;35.50;;;;;;483358;246;1132;-69
2020/12/10 09:47:36;;;;;;;;;;;20.00;35.50;;;;;;483313;242;1167;-69
2020/12/10 09:49:37;;;;;;;;;;;20.00;35.60;;;;;;483194;246;1166;-69
2020/12/10 09:51:44;;;;;;;;;;;20.00;35.50;;;;;;483572;246;2164;-70
2020/12/10 09:53:43;;;;;;;;;;;20.00;35.40;;;;;;483449;246;2077;-70
2020/12/10 09:58:02;;;;;;;;;;;20.00;35.60;;;;;;482991;246;1266;-69
2020/12/10 10:00:03;;;;;;;;;;;20.00;35.60;;;;;;483277;246;1222;-69
2020/12/10 10:02:04;;;;;;;;;;;20.00;35.60;;;;;;483476;246;1090;-70
2020/12/10 10:04:06;;;;;;;;;;;20.00;35.60;;;;;;483452;246;1227;-70
2020/12/10 10:06:07;;;;;;;;;;;20.00;35.80;;;;;;483257;246;1284;-70
2020/12/10 10:08:08;;;;;;;;;;;20.00;35.60;;;;;;483254;246;1185;-69
2020/12/10 10:10:09;;;;;;;;;;;20.10;35.60;;;;;;483258;246;2180;-70
2020/12/10 10:12:11;;;;;;;;;;;20.00;35.70;;;;;;483112;246;1085;-69
2020/12/10 10:14:12;;;;;;;;;;;20.00;35.70;;;;;;483185;246;1077;-70
2020/12/10 10:16:14;;;;;;;;;;;20.00;35.80;;;;;;483163;239;1275;-70
2020/12/10 10:18:16;;;;;;;;;;;20.00;35.80;;;;;;483204;246;1166;-70
2020/12/10 10:20:16;;;;;;;;;;;20.10;35.60;;;;;;483107;246;2046;-70
2020/12/10 10:22:18;;;;;;;;;;;20.00;35.60;;;;;;483275;246;1206;-70
2020/12/10 10:24:19;;;;;;;;;;;20.10;35.40;;;;;;483130;246;2363;-70
2020/12/10 10:26:20;;;;;;;;;;;20.10;35.20;;;;;;483320;242;1289;-70
2020/12/10 10:28:22;;;;;;;;;;;20.10;35.60;;;;;;483323;246;1103;-70
2020/12/10 10:30:25;;;;;;;;;;;20.10;35.90;;;;;;483315;246;2188;-70
2020/12/10 10:32:25;;;;;;;;;;;20.10;35.80;;;;;;482856;246;1494;-70
2020/12/10 10:34:26;;;;;;;;;;;20.20;35.60;;;;;;483075;246;1165;-69
2020/12/10 10:36:27;;;;;;;;;;;20.20;35.60;;;;;;483344;246;1277;-69
2020/12/10 10:38:29;;;;;;;;;;;20.20;35.50;;;;;;483271;246;1056;-69
2020/12/10 10:40:31;;;;;;;;;;;20.20;35.50;;;;;;483273;246;1045;-70
2020/12/10 10:42:33;;;;;;;;;;;20.20;35.50;;;;;;483135;246;1071;-70
2020/12/10 10:44:33;;;;;;;;;;;20.30;35.40;;;;;;483143;246;2268;-70
2020/12/10 10:46:35;;;;;;;;;;;20.30;35.40;;;;;;483261;246;1143;-70
2020/12/10 10:48:36;;;;;;;;;;;20.20;35.40;;;;;;483301;246;1029;-70
2020/12/10 10:50:37;;;;;;;;;;;20.30;35.50;;;;;;483190;246;2200;-70
2020/12/10 10:52:38;;;;;;;;;;;20.20;35.40;;;;;;483193;246;1053;-70
2020/12/10 10:54:40;;;;;;;;;;;20.30;35.50;;;;;;483233;246;1037;-71
2020/12/10 10:56:41;;;;;;;;;;;20.30;35.50;;;;;;483289;246;1162;-70
2020/12/10 10:58:42;;;;;;;;;;;20.40;35.20;;;;;;483215;246;1095;-70
2020/12/10 11:00:44;;;;;;;;;;;20.40;35.20;;;;;;483267;246;1052;-70
2020/12/10 11:02:45;;;;;;;;;;;20.30;35.30;;;;;;483089;246;1134;-70
2020/12/10 11:04:46;;;;;;;;;;;20.30;35.20;;;;;;483049;246;1240;-69
2020/12/10 11:06:48;;;;;;;;;;;20.20;35.40;;;;;;483209;246;1073;-69
2020/12/10 11:08:49;;;;;;;;;;;20.20;35.40;;;;;;483162;246;1164;-69
2020/12/10 11:10:50;;;;;;;;;;;20.20;35.40;;;;;;483096;246;2179;-69
2020/12/10 11:12:51;;;;;;;;;;;20.30;35.40;;;;;;483144;246;1101;-69
2020/12/10 11:14:53;;;;;;;;;;;20.20;35.20;;;;;;483123;246;1072;-69
2020/12/10 11:16:56;;;;;;;;;;;20.30;35.30;;;;;;483143;246;1062;-69
2020/12/10 11:18:57;;;;;;;;;;;20.30;35.10;;;;;;483063;246;1147;-69
2020/12/10 11:20:59;;;;;;;;;;;20.30;35.20;;;;;;483300;246;1120;-69
2020/12/10 11:23:00;;;;;;;;;;;20.20;35.10;;;;;;483365;246;1055;-70
2020/12/10 11:25:01;;;;;;;;;;;20.30;35.00;;;;;;483347;246;1230;-69
2020/12/10 11:27:03;;;;;;;;;;;20.20;35.10;;;;;;483231;246;1228;-69
2020/12/10 11:29:04;;;;;;;;;;;20.20;35.20;;;;;;483241;246;1094;-69
2020/12/10 11:31:05;;;;;;;;;;;20.20;35.10;;;;;;483212;246;2172;-69
2020/12/10 11:33:07;;;;;;;;;;;20.20;35.10;;;;;;483175;246;1061;-69
2020/12/10 11:35:08;;;;;;;;;;;20.30;35.10;;;;;;483222;246;1205;-70
2020/12/10 11:37:09;;;;;;;;;;;20.30;35.00;;;;;;483283;246;1023;-70
2020/12/10 11:39:10;;;;;;;;;;;20.30;35.00;;;;;;483205;246;1082;-69
2020/12/10 11:41:12;;;;;;;;;;;20.30;34.90;;;;;;483184;246;1081;-69
2020/12/10 11:43:13;;;;;;;;;;;20.40;34.90;;;;;;483205;246;1047;-69
2020/12/10 11:45:14;;;;;;;;;;;20.30;34.90;;;;;;483198;246;1066;-70
2020/12/10 11:47:16;;;;;;;;;;;20.30;35.00;;;;;;483381;246;1040;-70
2020/12/10 11:49:17;;;;;;;;;;;20.20;34.90;;;;;;483330;246;1122;-70
2020/12/10 11:51:18;;;;;;;;;;;20.20;35.00;;;;;;483258;246;2203;-70
2020/12/10 11:53:20;;;;;;;;;;;20.30;35.00;;;;;;483141;246;1056;-70
2020/12/10 11:55:21;;;;;;;;;;;20.30;34.90;;;;;;483245;246;1057;-70
2020/12/10 11:57:22;;;;;;;;;;;20.20;35.00;;;;;;483166;246;1022;-70
2020/12/10 11:59:24;;;;;;;;;;;20.20;34.90;;;;;;483219;246;1099;-70